sensor_id;sensor_type;location;lat;lon;timestamp;temperature;humidity
480;DHT22;226;48.606;9.096;2023-04-25T00:00:27;7.80;92.60
480;DHT22;226;48.606;9.096;2023-04-25T00:02:56;8.00;92.30
480;DHT22;226;48.606;9.096;2023-04-25T00:05:26;8.10;92.00
480;DHT22;226;48.606;9.096;2023-04-25T00:07:57;8.10;91.30
480;DHT22;226;48.606;9.096;2023-04-25T00:10:25;8.20;91.30
480;DHT22;226;48.606;9.096;2023-04-25T00:12:53;8.20;91.00
480;DHT22;226;48.606;9.096;2023-04-25T00:15:21;8.80;91.40
480;DHT22;226;48.606;9.096;2023-04-25T00:17:51;8.10;91.20
480;DHT22;226;48.606;9.096;2023-04-25T00:20:21;8.30;92.10
480;DHT22;226;48.606;9.096;2023-04-25T00:22:50;7.80;92.70
480;DHT22;226;48.606;9.096;2023-04-25T00:25:19;7.80;93.40
480;DHT22;226;48.606;9.096;2023-04-25T00:27:47;7.80;93.30
480;DHT22;226;48.606;9.096;2023-04-25T00:30:15;7.90;93.40
480;DHT22;226;48.606;9.096;2023-04-25T00:32:43;7.80;94.10
480;DHT22;226;48.606;9.096;2023-04-25T00:35:12;7.90;93.20
480;DHT22;226;48.606;9.096;2023-04-25T00:37:42;7.90;92.50
480;DHT22;226;48.606;9.096;2023-04-25T00:40:10;8.30;91.70
480;DHT22;226;48.606;9.096;2023-04-25T00:42:39;8.10;91.30
480;DHT22;226;48.606;9.096;2023-04-25T00:45:09;8.10;91.20
480;DHT22;226;48.606;9.096;2023-04-25T00:47:40;8.20;91.60
480;DHT22;226;48.606;9.096;2023-04-25T00:50:11;8.00;91.50
480;DHT22;226;48.606;9.096;2023-04-25T00:52:43;8.00;91.90
480;DHT22;226;48.606;9.096;2023-04-25T00:55:12;8.00;92.00
480;DHT22;226;48.606;9.096;2023-04-25T00:57:40;8.20;91.80
480;DHT22;226;48.606;9.096;2023-04-25T01:00:09;8.00;91.30
480;DHT22;226;48.606;9.096;2023-04-25T01:02:38;8.00;92.20
480;DHT22;226;48.606;9.096;2023-04-25T01:05:08;8.00;92.80
480;DHT22;226;48.606;9.096;2023-04-25T01:07:36;8.00;92.80
480;DHT22;226;48.606;9.096;2023-04-25T01:10:07;7.50;92.70
480;DHT22;226;48.606;9.096;2023-04-25T01:12:36;7.90;93.40
480;DHT22;226;48.606;9.096;2023-04-25T01:15:05;7.90;93.70
480;DHT22;226;48.606;9.096;2023-04-25T01:17:34;8.10;92.90
480;DHT22;226;48.606;9.096;2023-04-25T01:20:04;7.80;92.20
480;DHT22;226;48.606;9.096;2023-04-25T01:22:34;8.10;91.60
480;DHT22;226;48.606;9.096;2023-04-25T01:25:02;8.60;91.60
480;DHT22;226;48.606;9.096;2023-04-25T01:27:31;8.00;92.00
480;DHT22;226;48.606;9.096;2023-04-25T01:29:59;8.50;92.20
480;DHT22;226;48.606;9.096;2023-04-25T01:32:28;8.10;92.70
480;DHT22;226;48.606;9.096;2023-04-25T01:34:58;8.60;92.40
480;DHT22;226;48.606;9.096;2023-04-25T01:37:26;8.20;91.50
480;DHT22;226;48.606;9.096;2023-04-25T01:39:55;8.60;91.60
480;DHT22;226;48.606;9.096;2023-04-25T01:42:24;8.30;91.30
480;DHT22;226;48.606;9.096;2023-04-25T01:44:52;8.20;90.70
480;DHT22;226;48.606;9.096;2023-04-25T01:49:49;8.20;87.60
480;DHT22;226;48.606;9.096;2023-04-25T01:52:17;8.30;91.10
480;DHT22;226;48.606;9.096;2023-04-25T01:54:45;8.00;91.80
480;DHT22;226;48.606;9.096;2023-04-25T01:57:15;7.90;91.20
480;DHT22;226;48.606;9.096;2023-04-25T01:59:43;8.40;91.50
480;DHT22;226;48.606;9.096;2023-04-25T02:02:12;8.10;91.50
480;DHT22;226;48.606;9.096;2023-04-25T02:04:40;8.10;91.80
480;DHT22;226;48.606;9.096;2023-04-25T02:07:09;8.20;92.30
480;DHT22;226;48.606;9.096;2023-04-25T02:09:37;8.10;92.50
480;DHT22;226;48.606;9.096;2023-04-25T02:12:05;8.10;92.90
480;DHT22;226;48.606;9.096;2023-04-25T02:14:34;8.10;93.10
480;DHT22;226;48.606;9.096;2023-04-25T02:17:03;8.40;92.60
480;DHT22;226;48.606;9.096;2023-04-25T02:19:32;8.20;92.20
480;DHT22;226;48.606;9.096;2023-04-25T02:22:00;8.20;92.00
480;DHT22;226;48.606;9.096;2023-04-25T02:24:28;8.10;91.40
480;DHT22;226;48.606;9.096;2023-04-25T02:26:56;8.10;91.90
480;DHT22;226;48.606;9.096;2023-04-25T02:29:24;8.10;92.70
480;DHT22;226;48.606;9.096;2023-04-25T02:31:54;8.00;93.30
480;DHT22;226;48.606;9.096;2023-04-25T02:34:22;7.90;93.90
480;DHT22;226;48.606;9.096;2023-04-25T02:36:50;7.70;93.90
480;DHT22;226;48.606;9.096;2023-04-25T02:39:18;7.20;95.80
480;DHT22;226;48.606;9.096;2023-04-25T02:41:48;7.00;96.80
480;DHT22;226;48.606;9.096;2023-04-25T02:44:16;7.20;97.50
480;DHT22;226;48.606;9.096;2023-04-25T02:46:44;7.40;97.20
480;DHT22;226;48.606;9.096;2023-04-25T02:49:14;7.20;97.50
480;DHT22;226;48.606;9.096;2023-04-25T02:51:42;8.30;98.10
480;DHT22;226;48.606;9.096;2023-04-25T02:54:10;7.20;97.40
480;DHT22;226;48.606;9.096;2023-04-25T02:56:38;7.20;97.60
480;DHT22;226;48.606;9.096;2023-04-25T02:59:06;7.30;96.40
480;DHT22;226;48.606;9.096;2023-04-25T03:01:34;7.30;96.50
480;DHT22;226;48.606;9.096;2023-04-25T03:04:03;7.40;96.40
480;DHT22;226;48.606;9.096;2023-04-25T03:06:32;7.30;96.50
480;DHT22;226;48.606;9.096;2023-04-25T03:09:00;7.90;96.30
480;DHT22;226;48.606;9.096;2023-04-25T03:11:28;7.20;96.10
480;DHT22;226;48.606;9.096;2023-04-25T03:13:56;7.20;96.40
480;DHT22;226;48.606;9.096;2023-04-25T03:16:24;7.20;96.60
480;DHT22;226;48.606;9.096;2023-04-25T03:18:53;7.50;96.90
480;DHT22;226;48.606;9.096;2023-04-25T03:21:21;7.70;96.60
480;DHT22;226;48.606;9.096;2023-04-25T03:23:50;7.40;95.50
480;DHT22;226;48.606;9.096;2023-04-25T03:26:18;7.40;94.90
480;DHT22;226;48.606;9.096;2023-04-25T03:28:47;7.30;95.00
480;DHT22;226;48.606;9.096;2023-04-25T03:31:15;7.70;94.70
480;DHT22;226;48.606;9.096;2023-04-25T03:33:43;7.30;94.70
480;DHT22;226;48.606;9.096;2023-04-25T03:36:11;7.40;94.50
480;DHT22;226;48.606;9.096;2023-04-25T03:38:39;7.40;93.60
480;DHT22;226;48.606;9.096;2023-04-25T03:41:10;7.40;93.40
480;DHT22;226;48.606;9.096;2023-04-25T03:43:38;7.30;93.20
480;DHT22;226;48.606;9.096;2023-04-25T03:46:06;8.10;94.30
480;DHT22;226;48.606;9.096;2023-04-25T03:48:34;7.90;94.70
480;DHT22;226;48.606;9.096;2023-04-25T03:51:03;7.40;93.60
480;DHT22;226;48.606;9.096;2023-04-25T03:53:31;7.20;93.80
480;DHT22;226;48.606;9.096;2023-04-25T03:55:59;7.10;94.20
480;DHT22;226;48.606;9.096;2023-04-25T03:58:28;7.90;95.00
480;DHT22;226;48.606;9.096;2023-04-25T04:00:56;7.10;94.80
480;DHT22;226;48.606;9.096;2023-04-25T04:03:24;7.20;94.40
480;DHT22;226;48.606;9.096;2023-04-25T04:05:53;7.30;93.40
480;DHT22;226;48.606;9.096;2023-04-25T04:08:21;7.10;93.50
480;DHT22;226;48.606;9.096;2023-04-25T04:10:49;7.40;93.80
480;DHT22;226;48.606;9.096;2023-04-25T04:13:17;6.80;94.60
480;DHT22;226;48.606;9.096;2023-04-25T04:15:46;6.60;95.60
480;DHT22;226;48.606;9.096;2023-04-25T04:18:15;6.50;96.10
480;DHT22;226;48.606;9.096;2023-04-25T04:20:43;6.60;96.50
480;DHT22;226;48.606;9.096;2023-04-25T04:23:11;6.60;97.00
480;DHT22;226;48.606;9.096;2023-04-25T04:25:40;6.70;95.90
480;DHT22;226;48.606;9.096;2023-04-25T04:28:08;6.80;95.70
480;DHT22;226;48.606;9.096;2023-04-25T04:30:37;6.80;94.80
480;DHT22;226;48.606;9.096;2023-04-25T04:33:07;6.80;94.50
480;DHT22;226;48.606;9.096;2023-04-25T04:35:35;6.70;94.50
480;DHT22;226;48.606;9.096;2023-04-25T04:38:03;6.70;94.90
480;DHT22;226;48.606;9.096;2023-04-25T04:40:31;6.40;94.70
480;DHT22;226;48.606;9.096;2023-04-25T04:42:59;6.40;95.20
480;DHT22;226;48.606;9.096;2023-04-25T04:45:27;6.30;96.30
480;DHT22;226;48.606;9.096;2023-04-25T04:47:55;6.30;97.00
480;DHT22;226;48.606;9.096;2023-04-25T04:50:25;6.10;97.50
480;DHT22;226;48.606;9.096;2023-04-25T04:52:54;6.10;98.30
480;DHT22;226;48.606;9.096;2023-04-25T04:55:22;6.10;98.30
480;DHT22;226;48.606;9.096;2023-04-25T04:57:50;6.10;98.30
480;DHT22;226;48.606;9.096;2023-04-25T05:00:18;6.50;98.00
480;DHT22;226;48.606;9.096;2023-04-25T05:02:47;6.40;97.00
480;DHT22;226;48.606;9.096;2023-04-25T05:05:16;6.40;97.10
480;DHT22;226;48.606;9.096;2023-04-25T05:07:45;6.40;97.10
480;DHT22;226;48.606;9.096;2023-04-25T05:10:13;6.40;97.20
480;DHT22;226;48.606;9.096;2023-04-25T05:12:42;6.80;97.10
480;DHT22;226;48.606;9.096;2023-04-25T05:15:10;7.70;97.30
480;DHT22;226;48.606;9.096;2023-04-25T05:17:38;6.90;96.40
480;DHT22;226;48.606;9.096;2023-04-25T05:20:08;7.10;95.90
480;DHT22;226;48.606;9.096;2023-04-25T05:22:36;7.40;95.50
480;DHT22;226;48.606;9.096;2023-04-25T05:25:06;7.80;95.30
480;DHT22;226;48.606;9.096;2023-04-25T05:27:35;7.40;95.50
480;DHT22;226;48.606;9.096;2023-04-25T05:30:04;7.50;93.10
480;DHT22;226;48.606;9.096;2023-04-25T05:32:32;7.50;93.90
480;DHT22;226;48.606;9.096;2023-04-25T05:35:00;7.30;93.70
480;DHT22;226;48.606;9.096;2023-04-25T05:39:59;7.30;93.70
480;DHT22;226;48.606;9.096;2023-04-25T05:42:29;7.40;94.00
480;DHT22;226;48.606;9.096;2023-04-25T05:44:57;8.00;93.90
480;DHT22;226;48.606;9.096;2023-04-25T05:47:25;7.40;93.10
480;DHT22;226;48.606;9.096;2023-04-25T05:49:53;7.90;94.30
480;DHT22;226;48.606;9.096;2023-04-25T05:52:21;7.60;92.60
480;DHT22;226;48.606;9.096;2023-04-25T05:54:49;7.60;92.10
480;DHT22;226;48.606;9.096;2023-04-25T05:57:22;8.00;92.10
480;DHT22;226;48.606;9.096;2023-04-25T05:59:52;8.40;92.60
480;DHT22;226;48.606;9.096;2023-04-25T06:02:20;8.60;92.00
480;DHT22;226;48.606;9.096;2023-04-25T06:04:50;8.10;90.50
480;DHT22;226;48.606;9.096;2023-04-25T06:07:18;8.80;90.70
480;DHT22;226;48.606;9.096;2023-04-25T06:09:47;8.90;87.30
480;DHT22;226;48.606;9.096;2023-04-25T06:12:15;8.40;88.30
480;DHT22;226;48.606;9.096;2023-04-25T06:14:43;8.60;88.10
480;DHT22;226;48.606;9.096;2023-04-25T06:17:12;8.70;87.40
480;DHT22;226;48.606;9.096;2023-04-25T06:19:40;8.80;85.40
480;DHT22;226;48.606;9.096;2023-04-25T06:22:08;9.60;85.00
480;DHT22;226;48.606;9.096;2023-04-25T06:24:36;9.60;86.80
480;DHT22;226;48.606;9.096;2023-04-25T06:27:04;9.10;81.20
480;DHT22;226;48.606;9.096;2023-04-25T06:29:32;9.70;81.80
480;DHT22;226;48.606;9.096;2023-04-25T06:32:01;9.20;82.90
480;DHT22;226;48.606;9.096;2023-04-25T06:34:30;9.10;79.90
480;DHT22;226;48.606;9.096;2023-04-25T06:36:58;9.10;82.50
480;DHT22;226;48.606;9.096;2023-04-25T06:39:26;9.20;83.50
480;DHT22;226;48.606;9.096;2023-04-25T06:41:54;9.10;82.20
480;DHT22;226;48.606;9.096;2023-04-25T06:44:22;10.00;81.90
480;DHT22;226;48.606;9.096;2023-04-25T06:46:52;9.40;81.50
480;DHT22;226;48.606;9.096;2023-04-25T06:49:21;9.10;80.50
480;DHT22;226;48.606;9.096;2023-04-25T06:51:50;9.00;80.30
480;DHT22;226;48.606;9.096;2023-04-25T06:54:18;8.90;82.30
480;DHT22;226;48.606;9.096;2023-04-25T06:56:47;8.90;82.90
480;DHT22;226;48.606;9.096;2023-04-25T06:59:15;9.00;81.30
480;DHT22;226;48.606;9.096;2023-04-25T07:01:43;9.00;82.30
480;DHT22;226;48.606;9.096;2023-04-25T07:04:12;8.90;81.70
480;DHT22;226;48.606;9.096;2023-04-25T07:06:41;9.20;82.40
480;DHT22;226;48.606;9.096;2023-04-25T07:09:11;8.90;82.00
480;DHT22;226;48.606;9.096;2023-04-25T07:11:39;8.80;82.20
480;DHT22;226;48.606;9.096;2023-04-25T07:14:07;8.90;83.80
480;DHT22;226;48.606;9.096;2023-04-25T07:16:35;8.80;83.30
480;DHT22;226;48.606;9.096;2023-04-25T07:19:04;8.70;84.00
480;DHT22;226;48.606;9.096;2023-04-25T07:24:00;8.60;90.40
480;DHT22;226;48.606;9.096;2023-04-25T07:26:30;8.50;93.30
480;DHT22;226;48.606;9.096;2023-04-25T07:28:58;9.10;94.80
480;DHT22;226;48.606;9.096;2023-04-25T07:31:26;8.50;94.60
480;DHT22;226;48.606;9.096;2023-04-25T07:33:55;8.80;92.90
480;DHT22;226;48.606;9.096;2023-04-25T07:36:27;8.20;92.60
480;DHT22;226;48.606;9.096;2023-04-25T07:41:23;8.20;92.40
480;DHT22;226;48.606;9.096;2023-04-25T07:43:52;8.20;94.00
480;DHT22;226;48.606;9.096;2023-04-25T07:46:20;8.80;94.50
480;DHT22;226;48.606;9.096;2023-04-25T07:51:17;8.20;90.70
480;DHT22;226;48.606;9.096;2023-04-25T07:53:46;8.20;91.80
480;DHT22;226;48.606;9.096;2023-04-25T07:56:16;8.80;93.40
480;DHT22;226;48.606;9.096;2023-04-25T08:01:14;8.30;90.40
480;DHT22;226;48.606;9.096;2023-04-25T08:03:43;8.30;92.30
480;DHT22;226;48.606;9.096;2023-04-25T08:06:11;8.30;92.10
480;DHT22;226;48.606;9.096;2023-04-25T08:11:08;8.10;88.30
480;DHT22;226;48.606;9.096;2023-04-25T08:13:36;8.10;90.30
480;DHT22;226;48.606;9.096;2023-04-25T08:16:04;8.10;91.30
480;DHT22;226;48.606;9.096;2023-04-25T08:18:34;8.00;93.00
480;DHT22;226;48.606;9.096;2023-04-25T08:21:02;8.00;93.30
480;DHT22;226;48.606;9.096;2023-04-25T08:23:30;8.10;92.20
480;DHT22;226;48.606;9.096;2023-04-25T08:25:58;7.80;91.80
480;DHT22;226;48.606;9.096;2023-04-25T08:28:27;7.70;92.50
480;DHT22;226;48.606;9.096;2023-04-25T08:30:55;7.60;90.70
480;DHT22;226;48.606;9.096;2023-04-25T08:33:24;7.50;92.40
480;DHT22;226;48.606;9.096;2023-04-25T08:35:53;8.00;93.40
480;DHT22;226;48.606;9.096;2023-04-25T08:38:21;7.60;94.00
480;DHT22;226;48.606;9.096;2023-04-25T08:40:50;7.70;94.60
480;DHT22;226;48.606;9.096;2023-04-25T08:43:19;7.80;91.90
480;DHT22;226;48.606;9.096;2023-04-25T08:45:47;7.80;90.30
480;DHT22;226;48.606;9.096;2023-04-25T08:48:16;7.80;90.80
480;DHT22;226;48.606;9.096;2023-04-25T08:50:49;7.60;88.40
480;DHT22;226;48.606;9.096;2023-04-25T08:53:22;7.60;90.30
480;DHT22;226;48.606;9.096;2023-04-25T08:55:55;7.40;91.40
480;DHT22;226;48.606;9.096;2023-04-25T08:58:24;8.00;94.30
480;DHT22;226;48.606;9.096;2023-04-25T09:00:52;7.60;94.60
480;DHT22;226;48.606;9.096;2023-04-25T09:03:20;7.00;93.90
480;DHT22;226;48.606;9.096;2023-04-25T09:05:49;7.10;93.10
480;DHT22;226;48.606;9.096;2023-04-25T09:08:17;7.00;94.70
480;DHT22;226;48.606;9.096;2023-04-25T09:10:47;7.20;96.30
480;DHT22;226;48.606;9.096;2023-04-25T09:13:24;7.20;95.00
480;DHT22;226;48.606;9.096;2023-04-25T09:15:54;7.90;94.90
480;DHT22;226;48.606;9.096;2023-04-25T09:18:23;7.50;95.10
480;DHT22;226;48.606;9.096;2023-04-25T09:20:57;7.10;95.50
480;DHT22;226;48.606;9.096;2023-04-25T09:23:38;7.60;97.60
480;DHT22;226;48.606;9.096;2023-04-25T09:26:08;7.70;98.00
480;DHT22;226;48.606;9.096;2023-04-25T09:31:05;7.20;92.90
480;DHT22;226;48.606;9.096;2023-04-25T09:33:34;6.90;95.40
480;DHT22;226;48.606;9.096;2023-04-25T09:36:04;6.80;95.90
480;DHT22;226;48.606;9.096;2023-04-25T09:41:01;6.70;92.70
480;DHT22;226;48.606;9.096;2023-04-25T09:43:31;6.60;96.90
480;DHT22;226;48.606;9.096;2023-04-25T09:45:59;6.60;95.80
480;DHT22;226;48.606;9.096;2023-04-25T09:48:28;7.00;97.90
480;DHT22;226;48.606;9.096;2023-04-25T09:51:07;6.60;96.80
480;DHT22;226;48.606;9.096;2023-04-25T09:53:36;6.60;98.70
480;DHT22;226;48.606;9.096;2023-04-25T09:56:06;6.60;95.10
480;DHT22;226;48.606;9.096;2023-04-25T09:58:37;6.30;96.50
480;DHT22;226;48.606;9.096;2023-04-25T10:01:08;6.80;87.10
480;DHT22;226;48.606;9.096;2023-04-25T10:03:38;7.00;86.30
480;DHT22;226;48.606;9.096;2023-04-25T10:06:08;7.00;89.60
480;DHT22;226;48.606;9.096;2023-04-25T10:08:38;6.20;98.00
480;DHT22;226;48.606;9.096;2023-04-25T10:11:08;6.50;89.90
480;DHT22;226;48.606;9.096;2023-04-25T10:13:37;7.10;91.00
480;DHT22;226;48.606;9.096;2023-04-25T10:16:05;6.90;86.10
480;DHT22;226;48.606;9.096;2023-04-25T10:18:33;6.10;99.20
480;DHT22;226;48.606;9.096;2023-04-25T10:21:04;6.60;91.30
480;DHT22;226;48.606;9.096;2023-04-25T10:23:33;6.60;90.30
480;DHT22;226;48.606;9.096;2023-04-25T10:26:02;6.20;90.00
480;DHT22;226;48.606;9.096;2023-04-25T10:28:57;6.60;91.20
480;DHT22;226;48.606;9.096;2023-04-25T10:31:25;6.50;88.00
480;DHT22;226;48.606;9.096;2023-04-25T10:33:54;7.10;91.70
480;DHT22;226;48.606;9.096;2023-04-25T10:36:23;7.00;91.90
480;DHT22;226;48.606;9.096;2023-04-25T10:38:53;7.10;89.50
480;DHT22;226;48.606;9.096;2023-04-25T10:41:22;7.10;90.40
480;DHT22;226;48.606;9.096;2023-04-25T10:44:00;7.40;91.10
480;DHT22;226;48.606;9.096;2023-04-25T10:46:29;7.10;88.40
480;DHT22;226;48.606;9.096;2023-04-25T10:48:59;6.60;89.60
480;DHT22;226;48.606;9.096;2023-04-25T10:51:28;7.00;90.50
480;DHT22;226;48.606;9.096;2023-04-25T10:54:09;7.10;90.50
480;DHT22;226;48.606;9.096;2023-04-25T10:56:38;6.90;91.30
480;DHT22;226;48.606;9.096;2023-04-25T10:59:10;7.40;91.10
480;DHT22;226;48.606;9.096;2023-04-25T11:01:40;7.20;92.20
480;DHT22;226;48.606;9.096;2023-04-25T11:04:21;7.90;92.90
480;DHT22;226;48.606;9.096;2023-04-25T11:07:13;8.10;92.50
480;DHT22;226;48.606;9.096;2023-04-25T11:09:46;8.20;85.00
480;DHT22;226;48.606;9.096;2023-04-25T11:12:14;8.00;85.10
480;DHT22;226;48.606;9.096;2023-04-25T11:14:44;8.40;86.30
480;DHT22;226;48.606;9.096;2023-04-25T11:17:12;8.20;91.50
480;DHT22;226;48.606;9.096;2023-04-25T11:19:40;7.30;87.20
480;DHT22;226;48.606;9.096;2023-04-25T11:22:10;7.90;91.90
480;DHT22;226;48.606;9.096;2023-04-25T11:24:38;8.20;85.60
480;DHT22;226;48.606;9.096;2023-04-25T11:27:06;8.10;91.20
480;DHT22;226;48.606;9.096;2023-04-25T11:29:35;7.90;87.50
480;DHT22;226;48.606;9.096;2023-04-25T11:32:04;7.90;85.00
480;DHT22;226;48.606;9.096;2023-04-25T11:34:33;7.90;82.60
480;DHT22;226;48.606;9.096;2023-04-25T11:37:02;8.40;86.60
480;DHT22;226;48.606;9.096;2023-04-25T11:39:30;8.10;90.40
480;DHT22;226;48.606;9.096;2023-04-25T11:41:59;7.90;84.60
480;DHT22;226;48.606;9.096;2023-04-25T11:44:34;7.80;87.10
480;DHT22;226;48.606;9.096;2023-04-25T11:47:03;7.80;87.80
480;DHT22;226;48.606;9.096;2023-04-25T11:49:31;7.60;90.70
480;DHT22;226;48.606;9.096;2023-04-25T11:52:00;8.00;87.90
480;DHT22;226;48.606;9.096;2023-04-25T11:54:28;8.10;91.00
480;DHT22;226;48.606;9.096;2023-04-25T11:56:56;8.00;91.70
480;DHT22;226;48.606;9.096;2023-04-25T11:59:25;7.80;84.60
480;DHT22;226;48.606;9.096;2023-04-25T12:01:54;8.30;86.60
480;DHT22;226;48.606;9.096;2023-04-25T12:04:25;7.80;86.40
480;DHT22;226;48.606;9.096;2023-04-25T12:06:55;8.10;87.50
480;DHT22;226;48.606;9.096;2023-04-25T12:09:28;7.90;90.00
480;DHT22;226;48.606;9.096;2023-04-25T12:11:58;8.20;90.50
480;DHT22;226;48.606;9.096;2023-04-25T12:14:30;8.30;90.00
480;DHT22;226;48.606;9.096;2023-04-25T12:17:00;8.70;89.00
480;DHT22;226;48.606;9.096;2023-04-25T12:19:34;8.80;87.20
480;DHT22;226;48.606;9.096;2023-04-25T12:22:03;8.40;84.90
480;DHT22;226;48.606;9.096;2023-04-25T12:24:33;8.70;77.10
480;DHT22;226;48.606;9.096;2023-04-25T12:27:06;8.30;81.50
480;DHT22;226;48.606;9.096;2023-04-25T12:29:35;8.70;84.40
480;DHT22;226;48.606;9.096;2023-04-25T12:32:15;8.30;80.40
480;DHT22;226;48.606;9.096;2023-04-25T12:34:45;8.30;83.80
480;DHT22;226;48.606;9.096;2023-04-25T12:37:14;8.70;78.30
480;DHT22;226;48.606;9.096;2023-04-25T12:39:42;8.70;80.00
480;DHT22;226;48.606;9.096;2023-04-25T12:42:10;9.40;83.80
480;DHT22;226;48.606;9.096;2023-04-25T12:44:39;8.40;79.10
480;DHT22;226;48.606;9.096;2023-04-25T12:47:08;9.00;84.70
480;DHT22;226;48.606;9.096;2023-04-25T12:49:36;8.90;82.40
480;DHT22;226;48.606;9.096;2023-04-25T12:52:06;8.90;79.30
480;DHT22;226;48.606;9.096;2023-04-25T12:54:34;8.90;75.40
480;DHT22;226;48.606;9.096;2023-04-25T12:57:02;8.60;74.30
480;DHT22;226;48.606;9.096;2023-04-25T12:59:30;8.70;74.50
480;DHT22;226;48.606;9.096;2023-04-25T13:01:58;9.20;83.90
480;DHT22;226;48.606;9.096;2023-04-25T13:04:26;8.90;78.20
480;DHT22;226;48.606;9.096;2023-04-25T13:06:55;9.10;76.40
480;DHT22;226;48.606;9.096;2023-04-25T13:09:24;9.70;75.00
480;DHT22;226;48.606;9.096;2023-04-25T13:11:52;9.70;69.80
480;DHT22;226;48.606;9.096;2023-04-25T13:14:24;9.50;71.90
480;DHT22;226;48.606;9.096;2023-04-25T13:16:52;9.40;67.70
480;DHT22;226;48.606;9.096;2023-04-25T13:19:21;10.00;69.80
480;DHT22;226;48.606;9.096;2023-04-25T13:21:49;10.20;77.90
480;DHT22;226;48.606;9.096;2023-04-25T13:24:17;10.30;73.40
480;DHT22;226;48.606;9.096;2023-04-25T13:26:47;10.30;76.60
480;DHT22;226;48.606;9.096;2023-04-25T13:29:15;10.90;67.50
480;DHT22;226;48.606;9.096;2023-04-25T13:31:43;11.30;68.00
480;DHT22;226;48.606;9.096;2023-04-25T13:34:11;10.90;62.50
480;DHT22;226;48.606;9.096;2023-04-25T13:36:39;11.40;61.40
480;DHT22;226;48.606;9.096;2023-04-25T13:39:08;11.30;64.40
480;DHT22;226;48.606;9.096;2023-04-25T13:41:36;12.20;59.70
480;DHT22;226;48.606;9.096;2023-04-25T13:44:06;11.90;61.20
480;DHT22;226;48.606;9.096;2023-04-25T13:46:34;12.00;56.40
480;DHT22;226;48.606;9.096;2023-04-25T14:01:42;11.70;68.10
480;DHT22;226;48.606;9.096;2023-04-25T14:06:40;11.70;64.70
480;DHT22;226;48.606;9.096;2023-04-25T14:14:05;11.80;62.30
480;DHT22;226;48.606;9.096;2023-04-25T14:16:37;12.50;64.20
480;DHT22;226;48.606;9.096;2023-04-25T14:19:05;12.40;64.00
480;DHT22;226;48.606;9.096;2023-04-25T14:21:33;12.80;57.30
480;DHT22;226;48.606;9.096;2023-04-25T14:24:02;12.80;59.90
480;DHT22;226;48.606;9.096;2023-04-25T14:26:30;13.20;56.80
480;DHT22;226;48.606;9.096;2023-04-25T14:28:58;13.30;60.40
480;DHT22;226;48.606;9.096;2023-04-25T14:31:26;12.90;58.40
480;DHT22;226;48.606;9.096;2023-04-25T14:33:55;12.80;57.00
480;DHT22;226;48.606;9.096;2023-04-25T14:36:25;11.80;59.50
480;DHT22;226;48.606;9.096;2023-04-25T14:38:54;11.80;59.90
480;DHT22;226;48.606;9.096;2023-04-25T14:41:22;11.70;60.90
480;DHT22;226;48.606;9.096;2023-04-25T14:43:50;11.40;60.70
480;DHT22;226;48.606;9.096;2023-04-25T14:46:20;11.20;61.50
480;DHT22;226;48.606;9.096;2023-04-25T14:51:18;11.20;55.00
480;DHT22;226;48.606;9.096;2023-04-25T14:53:46;11.40;57.00
480;DHT22;226;48.606;9.096;2023-04-25T14:56:15;12.00;58.30
480;DHT22;226;48.606;9.096;2023-04-25T15:01:12;11.90;52.60
480;DHT22;226;48.606;9.096;2023-04-25T15:03:41;11.80;55.90
480;DHT22;226;48.606;9.096;2023-04-25T15:06:09;11.00;57.80
480;DHT22;226;48.606;9.096;2023-04-25T15:08:39;11.30;56.90
480;DHT22;226;48.606;9.096;2023-04-25T15:11:07;11.30;57.10
480;DHT22;226;48.606;9.096;2023-04-25T15:13:35;11.70;56.20
480;DHT22;226;48.606;9.096;2023-04-25T15:16:03;11.60;54.60
480;DHT22;226;48.606;9.096;2023-04-25T15:21:01;11.40;53.60
480;DHT22;226;48.606;9.096;2023-04-25T15:23:29;11.50;56.40
480;DHT22;226;48.606;9.096;2023-04-25T15:25:59;11.50;55.70
480;DHT22;226;48.606;9.096;2023-04-25T15:28:27;11.90;56.00
480;DHT22;226;48.606;9.096;2023-04-25T15:30:55;11.70;54.40
480;DHT22;226;48.606;9.096;2023-04-25T15:35:53;12.70;57.70
